KMGJ

Orange County Airport

Montgomery, New York, USA
METAR KMGJ 150254Z AUTO 23004KT 10SM CLR 19/18 A2984 RMK AO2 RAB04E14 SLP101 P0000 60000 T01940183 50005
Observed Flight Rules
Aug-15 @ 02:54 UTC (43 minutes ago) Visual Flight Rules
Wind Visibility Clouds
230° at 4 knots 10 miles
  • Clear skies
Temperatures Readings Precipitation
Current 19°C / 66°F
Dewpoint 18°C / 64°F
Humidity 94%
Altimeter 29.84" Hg
Pressure 1010.1 hPa
Elevation 108
Current Rain 0.005
METAR KMGJ 150254Z AUTO 23004KT 10SM CLR 19/18 A2984 RMK AO2 RAB04E14 SLP101 P0000 60000 T01940183 50005
Observed Flight Rules
Aug-15 @ 02:54 UTC
(43 minutes ago)
VFR
Wind Visibility
230° at 4 knots 10 miles
Clouds
  • Clear skies
Temperature Dewpoint
19°C / 66°F 18°C / 64°F
Humidity Altimeter Pressure
94% 29.84" Hg 1010.1 hPa
Current Rain
0.005